Manuel Alba — E.A.S.W — position and weather

sailwx.info

Track history (hours):
 
Tides and Currents Weather Stations Pressure Air Temp Water Temp Dewpoint Dewpoint Depression Visibility Wind Speed Wind Dir Waves Ship Positions

Manuel Alba

Last reported at 2017-Aug-26 13:49 UTC. Time now 2017-Sep-21 22:58 UTC.
Position N 38°43' W 010°23'.
Warning: this ship's position is 26 days out of date.

Length 32 m; draft 3.8 m.

Type: Fishing. MMSI: 224052370.

Date/timePositionNaut miles runAvg speedWind from/ knotsBaromVisibWave heightAir tempDewpointWater temp
2017-Aug-26 13:49N 38°43' W 010°23'3 8.6
2017-Aug-26 13:28N 38°45' W 010°20'4 9.0
2017-Aug-26 13:00N 38°49' W 010°17'4 8.3
2017-Aug-26 12:30N 38°51' W 010°13'4 7.8
2017-Aug-26 12:00N 38°54' W 010°09'4 7.2
2017-Aug-26 11:30N 38°56' W 010°06'4 7.2
2017-Aug-26 11:00N 38°58' W 010°02'4 8.0
2017-Aug-26 10:30N 39°01' W 009°58'4 7.6
2017-Aug-26 10:00N 39°03' W 009°54'4 7.1
2017-Aug-26 09:30N 39°04' W 009°49'4 7.6
2017-Aug-26 09:00N 39°06' W 009°46'4 7.7
2017-Aug-26 08:30N 39°08' W 009°42'4 7.5
2017-Aug-26 08:00N 39°11' W 009°38'3 7.0
2017-Aug-26 07:30N 39°13' W 009°34'4 7.1
2017-Aug-26 07:00N 39°15' W 009°31'3 7.0
2017-Aug-26 06:30N 39°17' W 009°27'5 0.4
2017-Aug-25 17:32N 39°21' W 009°22'0 0.0
2017-Aug-25 17:24N 39°21' W 009°22'0 0.0
2017-Aug-25 16:47N 39°21' W 009°22'0 0.0
2017-Aug-25 16:28N 39°21' W 009°22'0 0.0
2017-Aug-25 15:58N 39°21' W 009°22'0 0.0
2017-Aug-25 15:07N 39°21' W 009°22'0 0.0
2017-Aug-25 12:19N 39°21' W 009°22'0 0.0
2017-Aug-25 11:57N 39°21' W 009°22'  
2017-Aug-23 06:47N 39°21' W 009°22'0 0.0
2017-Aug-23 00:15N 39°21' W 009°22'0 0.0
2017-Aug-22 23:57N 39°21' W 009°22'0 0.0
2017-Aug-22 07:30N 39°21' W 009°22'0 0.0
2017-Aug-22 04:21N 39°21' W 009°22'0 0.0
2017-Aug-22 02:12N 39°21' W 009°22'0 0.0
2017-Aug-22 01:31N 39°21' W 009°22'0 0.0
2017-Aug-22 01:18N 39°21' W 009°22'0 0.0
2017-Aug-21 18:38N 39°21' W 009°22'0 0.2
2017-Aug-21 18:22N 39°21' W 009°22'0 0.2
2017-Aug-21 17:25N 39°21' W 009°22'0 0.0
2017-Aug-21 16:22N 39°21' W 009°22'0 0.0
2017-Aug-21 15:55N 39°21' W 009°22'0 0.0
2017-Aug-21 14:36N 39°21' W 009°22'0 0.0
2017-Aug-21 14:16N 39°21' W 009°22'0 0.0
2017-Aug-21 13:58N 39°21' W 009°22'0 0.0
2017-Aug-21 09:19N 39°21' W 009°22'0 0.0
2017-Aug-21 08:47N 39°21' W 009°22'0 0.0
2017-Aug-21 07:06N 39°21' W 009°22'0 0.0
2017-Aug-21 06:41N 39°21' W 009°22'0 0.0
2017-Aug-21 03:10N 39°21' W 009°22'0 0.0
2017-Aug-21 02:55N 39°21' W 009°22'0 0.0
2017-Aug-21 01:53N 39°21' W 009°22'0 0.0
2017-Aug-21 01:26N 39°21' W 009°22'0 0.0
2017-Aug-21 00:13N 39°21' W 009°22'0 0.0
2017-Aug-20 23:52N 39°21' W 009°22'0 0.0
2017-Aug-20 23:27N 39°21' W 009°22'0 0.0
2017-Aug-20 22:45N 39°21' W 009°22'0 0.0
2017-Aug-20 22:29N 39°21' W 009°22'0 0.0
2017-Aug-20 21:57N 39°21' W 009°22'0 0.0
2017-Aug-20 21:26N 39°21' W 009°22'0 0.0
2017-Aug-20 20:55N 39°21' W 009°22'0 0.0
2017-Aug-20 20:24N 39°21' W 009°22'0 0.0
2017-Aug-20 19:52N 39°21' W 009°22'0 0.0
2017-Aug-20 19:25N 39°21' W 009°22'0 0.0
2017-Aug-20 18:46N 39°21' W 009°22'0 0.0
2017-Aug-20 17:50N 39°21' W 009°22'0 0.0
2017-Aug-20 17:26N 39°21' W 009°22'0 0.0
2017-Aug-20 16:59N 39°21' W 009°22'0 0.0
2017-Aug-20 16:28N 39°21' W 009°22'0 0.0
2017-Aug-20 15:59N 39°21' W 009°22'0 0.0
2017-Aug-20 15:25N 39°21' W 009°22'0 0.0
2017-Aug-20 14:54N 39°21' W 009°22'0 0.0
2017-Aug-20 14:23N 39°21' W 009°22'0 0.0
2017-Aug-20 13:56N 39°21' W 009°22'0 0.0
2017-Aug-20 13:24N 39°21' W 009°22'0 0.0
2017-Aug-20 12:54N 39°21' W 009°22'0 0.0
2017-Aug-20 12:28N 39°21' W 009°22'0 0.0
2017-Aug-20 11:57N 39°21' W 009°22'0 0.0
2017-Aug-20 11:25N 39°21' W 009°22'0 0.0
2017-Aug-20 10:50N 39°21' W 009°22'0 0.0
2017-Aug-20 10:28N 39°21' W 009°22'0 0.0
2017-Aug-20 09:50N 39°21' W 009°22'0 0.0
2017-Aug-20 08:43N 39°21' W 009°22'0 0.0
2017-Aug-20 08:27N 39°21' W 009°22'0 0.0
2017-Aug-20 07:58N 39°21' W 009°22'0 0.0
2017-Aug-20 07:26N 39°21' W 009°22'0 0.0
2017-Aug-20 07:00N 39°21' W 009°22'0 0.0
2017-Aug-20 06:29N 39°21' W 009°22'  
Track history (hours):
 
Tides and Currents Weather Stations Pressure Air Temp Water Temp Dewpoint Dewpoint Depression Visibility Wind Speed Wind Dir Waves Ship Positions

Manuel Alba

Last reported at 2017-Aug-26 13:49 UTC. Time now 2017-Sep-21 22:58 UTC.
Position N 38°43' W 010°23'.
Warning: this ship's position is 26 days out of date.

Length 32 m; draft 3.8 m.

Type: Fishing. MMSI: 224052370.

Date/timePositionNaut miles runAvg speedWind from/ knotsBaromVisibWave heightAir tempDewpointWater temp
2017-Aug-26 13:49N 38°43' W 010°23'3 8.6
2017-Aug-26 13:28N 38°45' W 010°20'4 9.0
2017-Aug-26 13:00N 38°49' W 010°17'4 8.3
2017-Aug-26 12:30N 38°51' W 010°13'4 7.8
2017-Aug-26 12:00N 38°54' W 010°09'4 7.2
2017-Aug-26 11:30N 38°56' W 010°06'4 7.2
2017-Aug-26 11:00N 38°58' W 010°02'4 8.0
2017-Aug-26 10:30N 39°01' W 009°58'4 7.6
2017-Aug-26 10:00N 39°03' W 009°54'4 7.1
2017-Aug-26 09:30N 39°04' W 009°49'4 7.6
2017-Aug-26 09:00N 39°06' W 009°46'4 7.7
2017-Aug-26 08:30N 39°08' W 009°42'4 7.5
2017-Aug-26 08:00N 39°11' W 009°38'3 7.0
2017-Aug-26 07:30N 39°13' W 009°34'4 7.1
2017-Aug-26 07:00N 39°15' W 009°31'3 7.0
2017-Aug-26 06:30N 39°17' W 009°27'5 0.4
2017-Aug-25 17:32N 39°21' W 009°22'0 0.0
2017-Aug-25 17:24N 39°21' W 009°22'0 0.0
2017-Aug-25 16:47N 39°21' W 009°22'0 0.0
2017-Aug-25 16:28N 39°21' W 009°22'0 0.0
2017-Aug-25 15:58N 39°21' W 009°22'0 0.0
2017-Aug-25 15:07N 39°21' W 009°22'0 0.0
2017-Aug-25 12:19N 39°21' W 009°22'0 0.0
2017-Aug-25 11:57N 39°21' W 009°22'  
2017-Aug-23 06:47N 39°21' W 009°22'0 0.0
2017-Aug-23 00:15N 39°21' W 009°22'0 0.0
2017-Aug-22 23:57N 39°21' W 009°22'0 0.0
2017-Aug-22 07:30N 39°21' W 009°22'0 0.0
2017-Aug-22 04:21N 39°21' W 009°22'0 0.0
2017-Aug-22 02:12N 39°21' W 009°22'0 0.0
2017-Aug-22 01:31N 39°21' W 009°22'0 0.0
2017-Aug-22 01:18N 39°21' W 009°22'0 0.0
2017-Aug-21 18:38N 39°21' W 009°22'0 0.2
2017-Aug-21 18:22N 39°21' W 009°22'0 0.2
2017-Aug-21 17:25N 39°21' W 009°22'0 0.0
2017-Aug-21 16:22N 39°21' W 009°22'0 0.0
2017-Aug-21 15:55N 39°21' W 009°22'0 0.0
2017-Aug-21 14:36N 39°21' W 009°22'0 0.0
2017-Aug-21 14:16N 39°21' W 009°22'0 0.0
2017-Aug-21 13:58N 39°21' W 009°22'0 0.0
2017-Aug-21 09:19N 39°21' W 009°22'0 0.0
2017-Aug-21 08:47N 39°21' W 009°22'0 0.0
2017-Aug-21 07:06N 39°21' W 009°22'0 0.0
2017-Aug-21 06:41N 39°21' W 009°22'0 0.0
2017-Aug-21 03:10N 39°21' W 009°22'0 0.0
2017-Aug-21 02:55N 39°21' W 009°22'0 0.0
2017-Aug-21 01:53N 39°21' W 009°22'0 0.0
2017-Aug-21 01:26N 39°21' W 009°22'0 0.0
2017-Aug-21 00:13N 39°21' W 009°22'0 0.0
2017-Aug-20 23:52N 39°21' W 009°22'0 0.0
2017-Aug-20 23:27N 39°21' W 009°22'0 0.0
2017-Aug-20 22:45N 39°21' W 009°22'0 0.0
2017-Aug-20 22:29N 39°21' W 009°22'0 0.0
2017-Aug-20 21:57N 39°21' W 009°22'0 0.0
2017-Aug-20 21:26N 39°21' W 009°22'0 0.0
2017-Aug-20 20:55N 39°21' W 009°22'0 0.0
2017-Aug-20 20:24N 39°21' W 009°22'0 0.0
2017-Aug-20 19:52N 39°21' W 009°22'0 0.0
2017-Aug-20 19:25N 39°21' W 009°22'0 0.0
2017-Aug-20 18:46N 39°21' W 009°22'0 0.0
2017-Aug-20 17:50N 39°21' W 009°22'0 0.0
2017-Aug-20 17:26N 39°21' W 009°22'0 0.0
2017-Aug-20 16:59N 39°21' W 009°22'0 0.0
2017-Aug-20 16:28N 39°21' W 009°22'0 0.0
2017-Aug-20 15:59N 39°21' W 009°22'0 0.0
2017-Aug-20 15:25N 39°21' W 009°22'0 0.0
2017-Aug-20 14:54N 39°21' W 009°22'0 0.0
2017-Aug-20 14:23N 39°21' W 009°22'0 0.0
2017-Aug-20 13:56N 39°21' W 009°22'0 0.0
2017-Aug-20 13:24N 39°21' W 009°22'0 0.0
2017-Aug-20 12:54N 39°21' W 009°22'0 0.0
2017-Aug-20 12:28N 39°21' W 009°22'0 0.0
2017-Aug-20 11:57N 39°21' W 009°22'0 0.0
2017-Aug-20 11:25N 39°21' W 009°22'0 0.0
2017-Aug-20 10:50N 39°21' W 009°22'0 0.0
2017-Aug-20 10:28N 39°21' W 009°22'0 0.0
2017-Aug-20 09:50N 39°21' W 009°22'0 0.0
2017-Aug-20 08:43N 39°21' W 009°22'0 0.0
2017-Aug-20 08:27N 39°21' W 009°22'0 0.0
2017-Aug-20 07:58N 39°21' W 009°22'0 0.0
2017-Aug-20 07:26N 39°21' W 009°22'0 0.0
2017-Aug-20 07:00N 39°21' W 009°22'0 0.0
2017-Aug-20 06:29N 39°21' W 009°22'  

Dump ship's entire track history